sensor_id;sensor_type;location;lat;lon;timestamp;temperature;humidity
6407;DHT22;3236;51.022;6.818;2022-09-13T00:00:56;16.50;99.90
6407;DHT22;3236;51.022;6.818;2022-09-13T00:03:25;16.30;99.90
6407;DHT22;3236;51.022;6.818;2022-09-13T00:05:55;16.00;99.90
6407;DHT22;3236;51.022;6.818;2022-09-13T00:08:22;16.00;99.90
6407;DHT22;3236;51.022;6.818;2022-09-13T00:13:17;16.70;99.90
6407;DHT22;3236;51.022;6.818;2022-09-13T00:15:45;16.10;99.90
6407;DHT22;3236;51.022;6.818;2022-09-13T00:18:13;16.20;99.90
6407;DHT22;3236;51.022;6.818;2022-09-13T00:25:36;16.50;99.90
6407;DHT22;3236;51.022;6.818;2022-09-13T00:30:31;16.40;99.90
6407;DHT22;3236;51.022;6.818;2022-09-13T00:35:29;16.50;99.90
6407;DHT22;3236;51.022;6.818;2022-09-13T00:37:59;16.20;99.90
6407;DHT22;3236;51.022;6.818;2022-09-13T00:40:28;16.00;99.90
6407;DHT22;3236;51.022;6.818;2022-09-13T00:42:55;16.70;99.90
6407;DHT22;3236;51.022;6.818;2022-09-13T00:45:22;16.20;99.90
6407;DHT22;3236;51.022;6.818;2022-09-13T00:50:24;16.60;99.90
6407;DHT22;3236;51.022;6.818;2022-09-13T00:52:56;16.20;99.90
6407;DHT22;3236;51.022;6.818;2022-09-13T00:55:29;16.70;99.90
6407;DHT22;3236;51.022;6.818;2022-09-13T00:58:01;16.10;99.90
6407;DHT22;3236;51.022;6.818;2022-09-13T01:00:28;16.40;99.90
6407;DHT22;3236;51.022;6.818;2022-09-13T01:03:01;16.00;99.90
6407;DHT22;3236;51.022;6.818;2022-09-13T01:05:34;16.00;99.90
6407;DHT22;3236;51.022;6.818;2022-09-13T01:08:03;16.20;99.90
6407;DHT22;3236;51.022;6.818;2022-09-13T01:10:36;15.90;99.90
6407;DHT22;3236;51.022;6.818;2022-09-13T01:13:08;15.60;99.90
6407;DHT22;3236;51.022;6.818;2022-09-13T01:15:39;16.20;99.90
6407;DHT22;3236;51.022;6.818;2022-09-13T01:18:07;15.60;99.90
6407;DHT22;3236;51.022;6.818;2022-09-13T01:20:45;15.90;99.90
6407;DHT22;3236;51.022;6.818;2022-09-13T01:23:43;15.60;99.90
6407;DHT22;3236;51.022;6.818;2022-09-13T01:26:42;16.30;99.90
6407;DHT22;3236;51.022;6.818;2022-09-13T01:32:36;16.40;99.90
6407;DHT22;3236;51.022;6.818;2022-09-13T01:35:14;15.60;99.90
6407;DHT22;3236;51.022;6.818;2022-09-13T01:37:50;15.60;99.90
6407;DHT22;3236;51.022;6.818;2022-09-13T01:40:31;16.30;99.90
6407;DHT22;3236;51.022;6.818;2022-09-13T01:43:24;15.80;99.90
6407;DHT22;3236;51.022;6.818;2022-09-13T01:45:57;15.90;99.90
6407;DHT22;3236;51.022;6.818;2022-09-13T01:48:35;16.00;99.90
6407;DHT22;3236;51.022;6.818;2022-09-13T01:51:11;16.40;99.90
6407;DHT22;3236;51.022;6.818;2022-09-13T01:53:48;16.00;99.90
6407;DHT22;3236;51.022;6.818;2022-09-13T01:58:51;16.40;99.90
6407;DHT22;3236;51.022;6.818;2022-09-13T02:01:24;15.50;99.90
6407;DHT22;3236;51.022;6.818;2022-09-13T02:03:53;16.40;99.90
6407;DHT22;3236;51.022;6.818;2022-09-13T02:06:25;16.20;99.90
6407;DHT22;3236;51.022;6.818;2022-09-13T02:08:55;16.00;99.90
6407;DHT22;3236;51.022;6.818;2022-09-13T02:11:25;16.10;99.90
6407;DHT22;3236;51.022;6.818;2022-09-13T02:13:56;16.40;99.90
6407;DHT22;3236;51.022;6.818;2022-09-13T02:16:25;16.20;99.90
6407;DHT22;3236;51.022;6.818;2022-09-13T02:18:57;16.30;99.90
6407;DHT22;3236;51.022;6.818;2022-09-13T02:21:27;15.80;99.90
6407;DHT22;3236;51.022;6.818;2022-09-13T02:24:00;16.10;99.90
6407;DHT22;3236;51.022;6.818;2022-09-13T02:26:28;15.00;99.90
6407;DHT22;3236;51.022;6.818;2022-09-13T02:29:02;16.50;99.90
6407;DHT22;3236;51.022;6.818;2022-09-13T02:31:34;16.20;99.90
6407;DHT22;3236;51.022;6.818;2022-09-13T02:34:07;16.20;99.90
6407;DHT22;3236;51.022;6.818;2022-09-13T02:36:38;16.20;99.90
6407;DHT22;3236;51.022;6.818;2022-09-13T02:39:11;16.20;99.90
6407;DHT22;3236;51.022;6.818;2022-09-13T02:41:43;16.20;99.90
6407;DHT22;3236;51.022;6.818;2022-09-13T02:44:17;16.50;99.90
6407;DHT22;3236;51.022;6.818;2022-09-13T02:47:01;16.40;99.90
6407;DHT22;3236;51.022;6.818;2022-09-13T02:49:43;16.30;99.90
6407;DHT22;3236;51.022;6.818;2022-09-13T02:52:20;16.90;99.90
6407;DHT22;3236;51.022;6.818;2022-09-13T02:54:51;16.70;99.90
6407;DHT22;3236;51.022;6.818;2022-09-13T03:00:33;17.00;99.90
6407;DHT22;3236;51.022;6.818;2022-09-13T03:03:03;16.30;99.90
6407;DHT22;3236;51.022;6.818;2022-09-13T03:05:33;17.00;99.90
6407;DHT22;3236;51.022;6.818;2022-09-13T03:08:00;16.90;99.90
6407;DHT22;3236;51.022;6.818;2022-09-13T03:10:34;16.10;99.90
6407;DHT22;3236;51.022;6.818;2022-09-13T03:13:23;16.60;99.90
6407;DHT22;3236;51.022;6.818;2022-09-13T03:16:03;16.50;99.90
6407;DHT22;3236;51.022;6.818;2022-09-13T03:18:42;16.30;99.90
6407;DHT22;3236;51.022;6.818;2022-09-13T03:21:22;16.10;99.90
6407;DHT22;3236;51.022;6.818;2022-09-13T03:24:01;16.50;99.90
6407;DHT22;3236;51.022;6.818;2022-09-13T03:26:44;16.50;99.90
6407;DHT22;3236;51.022;6.818;2022-09-13T03:29:25;16.50;99.90
6407;DHT22;3236;51.022;6.818;2022-09-13T03:32:03;16.20;99.90
6407;DHT22;3236;51.022;6.818;2022-09-13T03:34:39;16.40;99.90
6407;DHT22;3236;51.022;6.818;2022-09-13T03:37:15;16.30;99.90
6407;DHT22;3236;51.022;6.818;2022-09-13T03:39:48;18.40;99.90
6407;DHT22;3236;51.022;6.818;2022-09-13T03:42:21;16.70;99.90
6407;DHT22;3236;51.022;6.818;2022-09-13T03:44:51;16.60;99.90
6407;DHT22;3236;51.022;6.818;2022-09-13T03:47:20;16.50;99.90
6407;DHT22;3236;51.022;6.818;2022-09-13T03:49:49;16.60;99.90
6407;DHT22;3236;51.022;6.818;2022-09-13T03:52:18;16.60;99.90
6407;DHT22;3236;51.022;6.818;2022-09-13T03:54:45;16.20;99.90
6407;DHT22;3236;51.022;6.818;2022-09-13T03:57:14;16.40;99.90
6407;DHT22;3236;51.022;6.818;2022-09-13T03:59:45;16.70;99.90
6407;DHT22;3236;51.022;6.818;2022-09-13T04:02:12;16.20;99.90
6407;DHT22;3236;51.022;6.818;2022-09-13T04:04:40;16.30;99.90
6407;DHT22;3236;51.022;6.818;2022-09-13T04:07:10;16.40;99.90
6407;DHT22;3236;51.022;6.818;2022-09-13T04:09:39;16.50;99.90
6407;DHT22;3236;51.022;6.818;2022-09-13T04:12:06;16.50;99.90
6407;DHT22;3236;51.022;6.818;2022-09-13T04:14:34;16.40;99.90
6407;DHT22;3236;51.022;6.818;2022-09-13T04:17:01;16.50;99.90
6407;DHT22;3236;51.022;6.818;2022-09-13T04:21:56;16.40;99.90
6407;DHT22;3236;51.022;6.818;2022-09-13T04:24:25;16.10;99.90
6407;DHT22;3236;51.022;6.818;2022-09-13T04:26:54;16.50;99.90
6407;DHT22;3236;51.022;6.818;2022-09-13T04:29:22;16.30;99.90
6407;DHT22;3236;51.022;6.818;2022-09-13T04:31:51;16.20;99.90
6407;DHT22;3236;51.022;6.818;2022-09-13T04:34:18;16.50;99.90
6407;DHT22;3236;51.022;6.818;2022-09-13T04:36:47;16.50;99.90
6407;DHT22;3236;51.022;6.818;2022-09-13T04:49:06;16.70;99.90
6407;DHT22;3236;51.022;6.818;2022-09-13T04:51:35;16.40;99.90
6407;DHT22;3236;51.022;6.818;2022-09-13T04:54:02;16.30;99.90
6407;DHT22;3236;51.022;6.818;2022-09-13T04:56:30;16.30;99.90
6407;DHT22;3236;51.022;6.818;2022-09-13T04:58:57;17.10;99.90
6407;DHT22;3236;51.022;6.818;2022-09-13T05:01:25;16.90;99.90
6407;DHT22;3236;51.022;6.818;2022-09-13T05:03:52;16.40;99.90
6407;DHT22;3236;51.022;6.818;2022-09-13T05:06:20;17.10;99.90
6407;DHT22;3236;51.022;6.818;2022-09-13T05:08:49;17.70;99.90
6407;DHT22;3236;51.022;6.818;2022-09-13T05:11:20;17.20;99.90
6407;DHT22;3236;51.022;6.818;2022-09-13T05:13:48;16.60;99.90
6407;DHT22;3236;51.022;6.818;2022-09-13T05:16:19;17.00;99.90
6407;DHT22;3236;51.022;6.818;2022-09-13T05:18:47;17.00;99.90
6407;DHT22;3236;51.022;6.818;2022-09-13T05:21:15;16.50;99.90
6407;DHT22;3236;51.022;6.818;2022-09-13T05:26:10;17.20;99.90
6407;DHT22;3236;51.022;6.818;2022-09-13T05:31:14;16.70;99.90
6407;DHT22;3236;51.022;6.818;2022-09-13T05:33:41;16.70;99.90
6407;DHT22;3236;51.022;6.818;2022-09-13T05:36:10;16.90;99.90
6407;DHT22;3236;51.022;6.818;2022-09-13T05:41:05;17.20;99.90
6407;DHT22;3236;51.022;6.818;2022-09-13T05:43:34;17.20;99.90
6407;DHT22;3236;51.022;6.818;2022-09-13T05:46:02;17.40;99.90
6407;DHT22;3236;51.022;6.818;2022-09-13T05:48:30;16.90;99.90
6407;DHT22;3236;51.022;6.818;2022-09-13T05:51:03;16.90;99.90
6407;DHT22;3236;51.022;6.818;2022-09-13T05:53:32;16.90;99.90
6407;DHT22;3236;51.022;6.818;2022-09-13T05:55:59;16.70;99.90
6407;DHT22;3236;51.022;6.818;2022-09-13T05:58:26;17.20;99.90
6407;DHT22;3236;51.022;6.818;2022-09-13T06:00:53;17.40;99.90
6407;DHT22;3236;51.022;6.818;2022-09-13T06:05:48;16.90;99.90
6407;DHT22;3236;51.022;6.818;2022-09-13T06:08:16;16.90;99.90
6407;DHT22;3236;51.022;6.818;2022-09-13T06:10:52;17.00;99.90
6407;DHT22;3236;51.022;6.818;2022-09-13T06:13:19;17.40;99.90
6407;DHT22;3236;51.022;6.818;2022-09-13T06:15:46;16.90;99.90
6407;DHT22;3236;51.022;6.818;2022-09-13T06:18:13;17.10;99.90
6407;DHT22;3236;51.022;6.818;2022-09-13T06:25:35;17.60;99.90
6407;DHT22;3236;51.022;6.818;2022-09-13T06:28:04;17.70;99.90
6407;DHT22;3236;51.022;6.818;2022-09-13T06:30:32;17.70;99.90
6407;DHT22;3236;51.022;6.818;2022-09-13T06:35:26;17.70;99.90
6407;DHT22;3236;51.022;6.818;2022-09-13T06:37:54;18.30;99.90
6407;DHT22;3236;51.022;6.818;2022-09-13T06:40:22;18.20;99.90
6407;DHT22;3236;51.022;6.818;2022-09-13T06:42:49;18.20;99.90
6407;DHT22;3236;51.022;6.818;2022-09-13T06:45:17;18.10;99.90
6407;DHT22;3236;51.022;6.818;2022-09-13T06:47:44;18.80;99.90
6407;DHT22;3236;51.022;6.818;2022-09-13T06:50:11;18.00;99.90
6407;DHT22;3236;51.022;6.818;2022-09-13T06:55:06;18.70;99.90
6407;DHT22;3236;51.022;6.818;2022-09-13T06:57:33;18.60;99.90
6407;DHT22;3236;51.022;6.818;2022-09-13T07:00:01;19.00;99.90
6407;DHT22;3236;51.022;6.818;2022-09-13T07:02:29;18.30;99.90
6407;DHT22;3236;51.022;6.818;2022-09-13T07:07:24;18.80;99.90
6407;DHT22;3236;51.022;6.818;2022-09-13T07:12:26;18.80;99.90
6407;DHT22;3236;51.022;6.818;2022-09-13T07:14:53;19.20;99.90
6407;DHT22;3236;51.022;6.818;2022-09-13T07:17:23;19.40;99.90
6407;DHT22;3236;51.022;6.818;2022-09-13T07:19:51;19.00;99.90
6407;DHT22;3236;51.022;6.818;2022-09-13T07:22:19;19.50;99.90
6407;DHT22;3236;51.022;6.818;2022-09-13T07:27:18;18.90;99.90
6407;DHT22;3236;51.022;6.818;2022-09-13T07:29:45;19.00;99.90
6407;DHT22;3236;51.022;6.818;2022-09-13T07:32:12;19.20;99.90
6407;DHT22;3236;51.022;6.818;2022-09-13T07:37:08;19.80;99.90
6407;DHT22;3236;51.022;6.818;2022-09-13T07:39:41;19.30;99.90
6407;DHT22;3236;51.022;6.818;2022-09-13T07:42:08;19.50;99.90
6407;DHT22;3236;51.022;6.818;2022-09-13T07:49:29;19.90;99.90
6407;DHT22;3236;51.022;6.818;2022-09-13T07:54:25;20.50;99.90
6407;DHT22;3236;51.022;6.818;2022-09-13T07:59:19;20.20;99.90
6407;DHT22;3236;51.022;6.818;2022-09-13T08:01:48;20.10;99.90
6407;DHT22;3236;51.022;6.818;2022-09-13T08:04:17;20.30;99.90
6407;DHT22;3236;51.022;6.818;2022-09-13T08:06:44;20.80;99.90
6407;DHT22;3236;51.022;6.818;2022-09-13T08:09:13;20.50;99.90
6407;DHT22;3236;51.022;6.818;2022-09-13T08:11:48;19.40;99.90
6407;DHT22;3236;51.022;6.818;2022-09-13T08:14:18;20.80;99.90
6407;DHT22;3236;51.022;6.818;2022-09-13T08:16:45;21.60;99.90
6407;DHT22;3236;51.022;6.818;2022-09-13T08:19:14;21.40;99.90
6407;DHT22;3236;51.022;6.818;2022-09-13T08:21:42;21.80;99.90
6407;DHT22;3236;51.022;6.818;2022-09-13T08:24:13;21.90;99.90
6407;DHT22;3236;51.022;6.818;2022-09-13T08:26:40;21.50;99.90
6407;DHT22;3236;51.022;6.818;2022-09-13T08:29:11;21.60;99.90
6407;DHT22;3236;51.022;6.818;2022-09-13T08:31:38;21.30;99.90
6407;DHT22;3236;51.022;6.818;2022-09-13T08:34:07;22.10;99.90
6407;DHT22;3236;51.022;6.818;2022-09-13T08:36:35;21.60;99.90
6407;DHT22;3236;51.022;6.818;2022-09-13T08:39:06;22.30;99.90
6407;DHT22;3236;51.022;6.818;2022-09-13T08:41:53;22.30;99.90
6407;DHT22;3236;51.022;6.818;2022-09-13T08:44:26;22.30;99.90
6407;DHT22;3236;51.022;6.818;2022-09-13T08:46:58;22.20;99.90
6407;DHT22;3236;51.022;6.818;2022-09-13T08:49:31;21.80;99.90
6407;DHT22;3236;51.022;6.818;2022-09-13T08:52:27;22.10;99.90
6407;DHT22;3236;51.022;6.818;2022-09-13T08:54:56;21.80;99.90
6407;DHT22;3236;51.022;6.818;2022-09-13T08:57:27;22.50;99.90
6407;DHT22;3236;51.022;6.818;2022-09-13T09:00:03;22.30;99.90
6407;DHT22;3236;51.022;6.818;2022-09-13T09:02:46;23.70;99.90
6407;DHT22;3236;51.022;6.818;2022-09-13T09:05:17;22.70;99.90
6407;DHT22;3236;51.022;6.818;2022-09-13T09:07:47;22.50;99.90
6407;DHT22;3236;51.022;6.818;2022-09-13T09:10:17;23.00;99.90
6407;DHT22;3236;51.022;6.818;2022-09-13T09:12:47;22.60;99.90
6407;DHT22;3236;51.022;6.818;2022-09-13T09:15:20;22.80;99.90
6407;DHT22;3236;51.022;6.818;2022-09-13T09:17:53;23.20;99.90
6407;DHT22;3236;51.022;6.818;2022-09-13T09:20:27;22.70;99.90
6407;DHT22;3236;51.022;6.818;2022-09-13T09:23:00;23.60;99.90
6407;DHT22;3236;51.022;6.818;2022-09-13T09:25:30;22.80;99.90
6407;DHT22;3236;51.022;6.818;2022-09-13T09:30:36;23.20;99.90
6407;DHT22;3236;51.022;6.818;2022-09-13T09:33:15;23.40;99.90
6407;DHT22;3236;51.022;6.818;2022-09-13T09:35:53;23.30;99.90
6407;DHT22;3236;51.022;6.818;2022-09-13T09:38:32;23.30;99.90
6407;DHT22;3236;51.022;6.818;2022-09-13T09:41:05;23.10;99.90
6407;DHT22;3236;51.022;6.818;2022-09-13T09:43:38;24.10;99.90
6407;DHT22;3236;51.022;6.818;2022-09-13T09:46:10;23.90;99.90
6407;DHT22;3236;51.022;6.818;2022-09-13T09:48:44;23.70;99.90
6407;DHT22;3236;51.022;6.818;2022-09-13T09:51:16;23.30;99.90
6407;DHT22;3236;51.022;6.818;2022-09-13T09:53:47;23.40;99.90
6407;DHT22;3236;51.022;6.818;2022-09-13T09:56:24;24.00;99.90
6407;DHT22;3236;51.022;6.818;2022-09-13T09:58:52;23.40;99.90
6407;DHT22;3236;51.022;6.818;2022-09-13T10:01:23;23.90;99.90
6407;DHT22;3236;51.022;6.818;2022-09-13T10:03:57;23.90;99.90
6407;DHT22;3236;51.022;6.818;2022-09-13T10:06:26;24.20;99.90
6407;DHT22;3236;51.022;6.818;2022-09-13T10:08:58;23.80;99.90
6407;DHT22;3236;51.022;6.818;2022-09-13T10:11:41;24.20;99.90
6407;DHT22;3236;51.022;6.818;2022-09-13T10:14:28;24.00;99.90
6407;DHT22;3236;51.022;6.818;2022-09-13T10:17:15;23.90;99.90
6407;DHT22;3236;51.022;6.818;2022-09-13T10:20:03;24.40;99.90
6407;DHT22;3236;51.022;6.818;2022-09-13T10:25:13;24.30;99.90
6407;DHT22;3236;51.022;6.818;2022-09-13T10:27:47;24.70;99.90
6407;DHT22;3236;51.022;6.818;2022-09-13T10:30:29;24.80;99.90
6407;DHT22;3236;51.022;6.818;2022-09-13T10:32:58;24.10;99.90
6407;DHT22;3236;51.022;6.818;2022-09-13T10:37:54;25.20;99.90
6407;DHT22;3236;51.022;6.818;2022-09-13T10:40:25;24.90;99.90
6407;DHT22;3236;51.022;6.818;2022-09-13T10:42:52;24.80;99.90
6407;DHT22;3236;51.022;6.818;2022-09-13T10:45:22;24.80;99.90
6407;DHT22;3236;51.022;6.818;2022-09-13T10:47:51;24.90;99.90
6407;DHT22;3236;51.022;6.818;2022-09-13T10:50:22;25.30;99.90
6407;DHT22;3236;51.022;6.818;2022-09-13T10:52:51;25.70;99.90
6407;DHT22;3236;51.022;6.818;2022-09-13T10:55:36;25.30;99.90
6407;DHT22;3236;51.022;6.818;2022-09-13T10:58:17;25.30;99.90
6407;DHT22;3236;51.022;6.818;2022-09-13T11:03:44;26.60;99.90
6407;DHT22;3236;51.022;6.818;2022-09-13T11:06:18;25.80;99.90
6407;DHT22;3236;51.022;6.818;2022-09-13T11:08:58;26.00;99.90
6407;DHT22;3236;51.022;6.818;2022-09-13T11:11:35;26.00;99.90
6407;DHT22;3236;51.022;6.818;2022-09-13T11:14:17;26.80;99.90
6407;DHT22;3236;51.022;6.818;2022-09-13T11:17:01;26.70;99.90
6407;DHT22;3236;51.022;6.818;2022-09-13T11:20:04;26.20;99.90
6407;DHT22;3236;51.022;6.818;2022-09-13T11:22:56;26.10;99.90
6407;DHT22;3236;51.022;6.818;2022-09-13T11:25:39;26.60;99.90
6407;DHT22;3236;51.022;6.818;2022-09-13T11:28:24;27.40;99.90
6407;DHT22;3236;51.022;6.818;2022-09-13T11:31:03;26.90;99.90
6407;DHT22;3236;51.022;6.818;2022-09-13T11:33:44;26.40;99.90
6407;DHT22;3236;51.022;6.818;2022-09-13T11:37:01;26.50;99.90
6407;DHT22;3236;51.022;6.818;2022-09-13T11:39:36;26.20;99.90
6407;DHT22;3236;51.022;6.818;2022-09-13T11:42:14;25.80;99.90
6407;DHT22;3236;51.022;6.818;2022-09-13T11:44:55;26.20;99.90
6407;DHT22;3236;51.022;6.818;2022-09-13T11:47:34;26.80;99.90
6407;DHT22;3236;51.022;6.818;2022-09-13T11:50:24;28.60;99.90
6407;DHT22;3236;51.022;6.818;2022-09-13T11:53:00;29.30;96.00
6407;DHT22;3236;51.022;6.818;2022-09-13T11:55:34;28.10;93.00
6407;DHT22;3236;51.022;6.818;2022-09-13T11:58:09;28.00;94.10
6407;DHT22;3236;51.022;6.818;2022-09-13T12:00:41;28.50;94.00
6407;DHT22;3236;51.022;6.818;2022-09-13T12:03:16;27.90;93.10
6407;DHT22;3236;51.022;6.818;2022-09-13T12:05:47;28.90;92.80
6407;DHT22;3236;51.022;6.818;2022-09-13T12:08:19;29.20;90.70
6407;DHT22;3236;51.022;6.818;2022-09-13T12:10:51;28.70;90.60
6407;DHT22;3236;51.022;6.818;2022-09-13T12:13:20;28.90;87.00
6407;DHT22;3236;51.022;6.818;2022-09-13T12:15:51;29.90;88.00
6407;DHT22;3236;51.022;6.818;2022-09-13T12:18:22;30.40;87.90
6407;DHT22;3236;51.022;6.818;2022-09-13T12:20:51;31.80;88.50
6407;DHT22;3236;51.022;6.818;2022-09-13T12:23:23;32.40;80.50
6407;DHT22;3236;51.022;6.818;2022-09-13T12:28:25;30.80;81.50
6407;DHT22;3236;51.022;6.818;2022-09-13T12:30:57;29.50;77.30
6407;DHT22;3236;51.022;6.818;2022-09-13T12:33:25;29.60;81.50
6407;DHT22;3236;51.022;6.818;2022-09-13T12:36:13;30.40;78.10
6407;DHT22;3236;51.022;6.818;2022-09-13T12:41:35;31.60;78.50
6407;DHT22;3236;51.022;6.818;2022-09-13T12:50:44;30.80;77.10
6407;DHT22;3236;51.022;6.818;2022-09-13T12:53:39;30.30;77.90
6407;DHT22;3236;51.022;6.818;2022-09-13T12:56:29;29.50;77.40
6407;DHT22;3236;51.022;6.818;2022-09-13T12:59:24;29.40;75.20
6407;DHT22;3236;51.022;6.818;2022-09-13T13:01:54;30.00;77.90
6407;DHT22;3236;51.022;6.818;2022-09-13T13:04:25;28.50;76.10
6407;DHT22;3236;51.022;6.818;2022-09-13T13:06:54;29.20;77.70
6407;DHT22;3236;51.022;6.818;2022-09-13T13:09:27;29.80;75.60
6407;DHT22;3236;51.022;6.818;2022-09-13T13:11:57;30.20;78.20
6407;DHT22;3236;51.022;6.818;2022-09-13T13:14:52;29.80;74.30
6407;DHT22;3236;51.022;6.818;2022-09-13T13:17:40;29.30;75.90
6407;DHT22;3236;51.022;6.818;2022-09-13T13:20:47;30.80;74.90
6407;DHT22;3236;51.022;6.818;2022-09-13T13:23:30;30.00;76.10
6407;DHT22;3236;51.022;6.818;2022-09-13T13:26:08;29.30;77.30
6407;DHT22;3236;51.022;6.818;2022-09-13T13:29:11;29.20;74.30
6407;DHT22;3236;51.022;6.818;2022-09-13T13:31:42;28.10;74.70
6407;DHT22;3236;51.022;6.818;2022-09-13T13:34:30;29.00;76.80
6407;DHT22;3236;51.022;6.818;2022-09-13T13:39:39;28.60;76.50
6407;DHT22;3236;51.022;6.818;2022-09-13T13:42:11;28.20;78.80
6407;DHT22;3236;51.022;6.818;2022-09-13T13:48:23;28.40;81.60
6407;DHT22;3236;51.022;6.818;2022-09-13T13:51:22;28.70;84.50
6407;DHT22;3236;51.022;6.818;2022-09-13T13:53:53;28.90;83.70
6407;DHT22;3236;51.022;6.818;2022-09-13T13:56:47;28.40;79.50
6407;DHT22;3236;51.022;6.818;2022-09-13T13:59:23;28.50;79.80
6407;DHT22;3236;51.022;6.818;2022-09-13T14:01:55;29.20;84.20
6407;DHT22;3236;51.022;6.818;2022-09-13T14:05:08;28.80;78.90
6407;DHT22;3236;51.022;6.818;2022-09-13T14:08:14;29.50;78.70
6407;DHT22;3236;51.022;6.818;2022-09-13T14:10:52;30.00;76.00
6407;DHT22;3236;51.022;6.818;2022-09-13T14:13:39;31.20;75.90
6407;DHT22;3236;51.022;6.818;2022-09-13T14:16:19;31.60;73.30
6407;DHT22;3236;51.022;6.818;2022-09-13T14:19:08;31.70;77.30
6407;DHT22;3236;51.022;6.818;2022-09-13T14:21:42;32.10;76.20
6407;DHT22;3236;51.022;6.818;2022-09-13T14:24:18;31.10;74.30
6407;DHT22;3236;51.022;6.818;2022-09-13T14:26:46;30.70;74.70
6407;DHT22;3236;51.022;6.818;2022-09-13T14:29:17;30.60;71.40
6407;DHT22;3236;51.022;6.818;2022-09-13T14:31:45;30.60;74.80
6407;DHT22;3236;51.022;6.818;2022-09-13T14:34:25;30.50;72.90
6407;DHT22;3236;51.022;6.818;2022-09-13T14:36:57;31.00;74.10
6407;DHT22;3236;51.022;6.818;2022-09-13T14:39:24;30.30;70.30
6407;DHT22;3236;51.022;6.818;2022-09-13T14:41:58;30.60;75.50
6407;DHT22;3236;51.022;6.818;2022-09-13T14:44:27;29.80;74.40
6407;DHT22;3236;51.022;6.818;2022-09-13T14:47:02;30.80;75.70
6407;DHT22;3236;51.022;6.818;2022-09-13T14:49:40;31.30;70.60
6407;DHT22;3236;51.022;6.818;2022-09-13T14:52:18;31.30;71.40
6407;DHT22;3236;51.022;6.818;2022-09-13T14:54:50;31.80;73.10
6407;DHT22;3236;51.022;6.818;2022-09-13T14:57:24;33.10;73.50
6407;DHT22;3236;51.022;6.818;2022-09-13T14:59:55;32.10;70.10
6407;DHT22;3236;51.022;6.818;2022-09-13T15:02:25;31.90;68.00
6407;DHT22;3236;51.022;6.818;2022-09-13T15:07:28;31.50;71.00
6407;DHT22;3236;51.022;6.818;2022-09-13T15:12:26;30.20;71.00
6407;DHT22;3236;51.022;6.818;2022-09-13T15:15:24;29.20;74.90
6407;DHT22;3236;51.022;6.818;2022-09-13T15:17:53;28.80;75.40
6407;DHT22;3236;51.022;6.818;2022-09-13T15:20:23;27.80;78.10
6407;DHT22;3236;51.022;6.818;2022-09-13T15:25:23;27.50;78.60
6407;DHT22;3236;51.022;6.818;2022-09-13T15:27:51;26.90;80.00
6407;DHT22;3236;51.022;6.818;2022-09-13T15:30:24;26.80;83.10
6407;DHT22;3236;51.022;6.818;2022-09-13T15:33:13;26.70;82.00
6407;DHT22;3236;51.022;6.818;2022-09-13T15:35:42;26.60;83.90
6407;DHT22;3236;51.022;6.818;2022-09-13T15:38:22;26.50;88.10
6407;DHT22;3236;51.022;6.818;2022-09-13T15:40:59;26.00;89.90
6407;DHT22;3236;51.022;6.818;2022-09-13T15:43:27;25.80;91.00
6407;DHT22;3236;51.022;6.818;2022-09-13T15:45:56;26.10;90.70
6407;DHT22;3236;51.022;6.818;2022-09-13T15:48:26;26.20;92.20
6407;DHT22;3236;51.022;6.818;2022-09-13T15:51:10;26.00;92.60
6407;DHT22;3236;51.022;6.818;2022-09-13T15:53:40;25.90;94.40
6407;DHT22;3236;51.022;6.818;2022-09-13T15:56:12;26.00;94.70
6407;DHT22;3236;51.022;6.818;2022-09-13T15:58:39;25.70;97.30
6407;DHT22;3236;51.022;6.818;2022-09-13T16:01:08;26.30;99.10
6407;DHT22;3236;51.022;6.818;2022-09-13T16:03:35;26.10;99.90
6407;DHT22;3236;51.022;6.818;2022-09-13T16:06:04;25.40;99.90
6407;DHT22;3236;51.022;6.818;2022-09-13T16:08:31;25.20;99.90
6407;DHT22;3236;51.022;6.818;2022-09-13T16:11:00;25.70;99.90
6407;DHT22;3236;51.022;6.818;2022-09-13T16:18:22;25.80;99.90
6407;DHT22;3236;51.022;6.818;2022-09-13T16:20:50;25.20;99.90
6407;DHT22;3236;51.022;6.818;2022-09-13T16:23:16;25.10;99.90
6407;DHT22;3236;51.022;6.818;2022-09-13T16:25:43;23.60;99.90
6407;DHT22;3236;51.022;6.818;2022-09-13T16:28:15;25.00;99.90
6407;DHT22;3236;51.022;6.818;2022-09-13T16:33:10;25.60;99.90
6407;DHT22;3236;51.022;6.818;2022-09-13T16:35:37;24.50;99.90
6407;DHT22;3236;51.022;6.818;2022-09-13T16:38:04;25.00;99.90
6407;DHT22;3236;51.022;6.818;2022-09-13T16:40:31;24.40;99.90
6407;DHT22;3236;51.022;6.818;2022-09-13T16:42:58;25.00;99.90
6407;DHT22;3236;51.022;6.818;2022-09-13T16:45:27;24.40;99.90
6407;DHT22;3236;51.022;6.818;2022-09-13T16:47:54;24.50;99.90
6407;DHT22;3236;51.022;6.818;2022-09-13T16:52:48;25.10;99.90
6407;DHT22;3236;51.022;6.818;2022-09-13T16:55:15;24.40;99.90
6407;DHT22;3236;51.022;6.818;2022-09-13T16:57:42;24.90;99.90
6407;DHT22;3236;51.022;6.818;2022-09-13T17:00:14;24.70;99.90
6407;DHT22;3236;51.022;6.818;2022-09-13T17:02:43;23.80;99.90
6407;DHT22;3236;51.022;6.818;2022-09-13T17:05:10;24.70;99.90
6407;DHT22;3236;51.022;6.818;2022-09-13T17:07:37;24.30;99.90
6407;DHT22;3236;51.022;6.818;2022-09-13T17:10:05;24.50;99.90
6407;DHT22;3236;51.022;6.818;2022-09-13T17:12:33;24.30;99.90
6407;DHT22;3236;51.022;6.818;2022-09-13T17:15:00;23.70;99.90
6407;DHT22;3236;51.022;6.818;2022-09-13T17:17:28;23.50;99.90
6407;DHT22;3236;51.022;6.818;2022-09-13T17:19:59;23.40;99.90
6407;DHT22;3236;51.022;6.818;2022-09-13T17:22:26;23.30;99.90
6407;DHT22;3236;51.022;6.818;2022-09-13T17:27:21;23.30;99.90
6407;DHT22;3236;51.022;6.818;2022-09-13T17:29:47;23.50;99.90
6407;DHT22;3236;51.022;6.818;2022-09-13T17:32:15;23.20;99.90
6407;DHT22;3236;51.022;6.818;2022-09-13T17:34:45;23.70;99.90
6407;DHT22;3236;51.022;6.818;2022-09-13T17:37:13;22.90;99.90
6407;DHT22;3236;51.022;6.818;2022-09-13T17:39:40;22.30;99.90
6407;DHT22;3236;51.022;6.818;2022-09-13T17:42:07;21.90;99.90
6407;DHT22;3236;51.022;6.818;2022-09-13T17:44:34;21.50;99.90
6407;DHT22;3236;51.022;6.818;2022-09-13T17:47:01;21.80;99.90
6407;DHT22;3236;51.022;6.818;2022-09-13T17:49:28;21.60;99.90
6407;DHT22;3236;51.022;6.818;2022-09-13T17:51:55;21.70;99.90
6407;DHT22;3236;51.022;6.818;2022-09-13T17:54:24;21.10;99.90
6407;DHT22;3236;51.022;6.818;2022-09-13T17:56:51;21.30;99.90
6407;DHT22;3236;51.022;6.818;2022-09-13T17:59:20;20.60;99.90
6407;DHT22;3236;51.022;6.818;2022-09-13T18:01:54;20.70;99.90
6407;DHT22;3236;51.022;6.818;2022-09-13T18:04:23;20.40;99.90
6407;DHT22;3236;51.022;6.818;2022-09-13T18:06:51;20.30;99.90
6407;DHT22;3236;51.022;6.818;2022-09-13T18:09:18;21.00;99.90
6407;DHT22;3236;51.022;6.818;2022-09-13T18:11:47;20.40;99.90
6407;DHT22;3236;51.022;6.818;2022-09-13T18:14:15;20.20;99.90
6407;DHT22;3236;51.022;6.818;2022-09-13T18:16:43;20.90;99.90
6407;DHT22;3236;51.022;6.818;2022-09-13T18:19:10;19.90;99.90
6407;DHT22;3236;51.022;6.818;2022-09-13T18:21:38;20.30;99.90
6407;DHT22;3236;51.022;6.818;2022-09-13T18:24:05;20.60;99.90
6407;DHT22;3236;51.022;6.818;2022-09-13T18:29:03;19.70;99.90
6407;DHT22;3236;51.022;6.818;2022-09-13T18:31:32;19.90;99.90
6407;DHT22;3236;51.022;6.818;2022-09-13T18:34:01;20.50;99.90
6407;DHT22;3236;51.022;6.818;2022-09-13T18:36:29;19.40;99.90
6407;DHT22;3236;51.022;6.818;2022-09-13T18:38:58;19.30;99.90
6407;DHT22;3236;51.022;6.818;2022-09-13T18:41:30;19.30;99.90
6407;DHT22;3236;51.022;6.818;2022-09-13T18:43:58;20.00;99.90